createdAt,value
2018-07-02T00:01:01.172Z,100265
2018-07-02T00:02:05.513Z,100262
2018-07-02T00:03:10.747Z,100271
2018-07-02T00:04:15.600Z,100265
2018-07-02T00:05:20.836Z,100274
2018-07-02T00:06:27.714Z,100277
2018-07-02T00:07:35.081Z,100268
2018-07-02T00:08:42.628Z,100268
2018-07-02T00:09:47.771Z,100271
2018-07-02T00:10:53.276Z,100271
2018-07-02T00:11:58.786Z,100262
2018-07-02T00:13:04.533Z,100268
2018-07-02T00:14:09.790Z,100268
2018-07-02T00:15:16.266Z,100265
2018-07-02T00:16:22.011Z,100271
2018-07-02T00:17:27.520Z,100268
2018-07-02T00:18:32.744Z,100265
2018-07-02T00:19:37.924Z,100262
2018-07-02T00:20:43.389Z,100265
2018-07-02T00:21:50.271Z,100257
2018-07-02T00:22:55.187Z,100265
2018-07-02T00:24:00.098Z,100262
2018-07-02T00:25:05.018Z,100259
2018-07-02T00:26:10.249Z,100259
2018-07-02T00:27:15.734Z,100271
2018-07-02T00:28:22.021Z,100256
2018-07-02T00:29:26.973Z,100259
2018-07-02T00:30:32.154Z,100262
2018-07-02T00:31:37.709Z,100262
2018-07-02T00:32:44.755Z,100254
2018-07-02T00:33:52.363Z,100268
2018-07-02T00:34:57.812Z,100262
2018-07-02T00:36:02.156Z,100259
2018-07-02T00:37:07.346Z,100245
2018-07-02T00:38:12.851Z,100259
2018-07-02T00:39:18.745Z,100254
2018-07-02T00:40:24.378Z,100245
2018-07-02T00:41:32.220Z,100236
2018-07-02T00:42:39.291Z,100245
2018-07-02T00:43:44.909Z,100236
2018-07-02T00:44:49.879Z,100242
2018-07-02T00:45:55.803Z,100242
2018-07-02T00:47:02.180Z,100233
2018-07-02T00:48:09.677Z,100233
2018-07-02T00:49:15.431Z,100236
2018-07-02T00:50:20.634Z,100228
2018-07-02T00:51:25.290Z,100230
2018-07-02T00:52:30.494Z,100222
2018-07-02T00:53:36.013Z,100230
2018-07-02T00:54:42.722Z,100228
2018-07-02T00:55:50.356Z,100222
2018-07-02T00:56:55.914Z,100233
2018-07-02T00:58:01.675Z,100230
2018-07-02T00:59:06.323Z,100230
2018-07-02T01:00:10.963Z,100228
2018-07-02T01:01:16.493Z,100228
2018-07-02T01:02:22.047Z,100219
2018-07-02T01:03:28.165Z,100222
2018-07-02T01:04:34.481Z,100222
2018-07-02T01:05:41.309Z,100219
2018-07-02T01:06:46.920Z,100225
2018-07-02T01:07:52.435Z,100222
2018-07-02T01:08:58.487Z,100228
2018-07-02T01:10:04.052Z,100225
2018-07-02T01:11:09.406Z,100230
2018-07-02T01:12:14.561Z,100222
2018-07-02T01:13:19.755Z,100216
2018-07-02T01:14:24.649Z,100216
2018-07-02T01:15:29.970Z,100219
2018-07-02T01:16:35.209Z,100213
2018-07-02T01:17:40.670Z,100213
2018-07-02T01:18:47.401Z,100210
2018-07-02T01:19:52.619Z,100213
2018-07-02T01:20:57.833Z,100207
2018-07-02T01:22:02.149Z,100201
2018-07-02T01:23:09.346Z,100207
2018-07-02T01:24:15.096Z,100201
2018-07-02T01:25:20.326Z,100201
2018-07-02T01:26:26.669Z,100207
2018-07-02T01:27:33.707Z,100213
2018-07-02T01:28:38.944Z,100213
2018-07-02T01:29:44.133Z,100207
2018-07-02T01:30:50.632Z,100213
2018-07-02T01:31:57.974Z,100210
2018-07-02T01:33:02.635Z,100210
2018-07-02T01:34:08.359Z,100213
2018-07-02T01:35:13.836Z,100210
2018-07-02T01:36:19.067Z,100213
2018-07-02T01:37:26.608Z,100201
2018-07-02T01:38:34.143Z,100219
2018-07-02T01:39:40.077Z,100207
2018-07-02T01:40:45.715Z,100219
2018-07-02T01:41:50.919Z,100201
2018-07-02T01:42:56.848Z,100210
2018-07-02T01:44:02.254Z,100207
2018-07-02T01:45:09.955Z,100207
2018-07-02T01:46:15.410Z,100207
2018-07-02T01:47:20.894Z,100219
2018-07-02T01:48:27.480Z,100219
2018-07-02T01:49:34.210Z,100216
2018-07-02T01:50:39.410Z,100222
2018-07-02T01:51:45.008Z,100216
2018-07-02T01:52:51.644Z,100213
2018-07-02T01:53:58.845Z,100216
2018-07-02T01:55:04.658Z,100219
2018-07-02T01:56:10.204Z,100210
2018-07-02T01:57:15.417Z,100207
2018-07-02T01:58:20.800Z,100207
2018-07-02T01:59:29.040Z,100210
2018-07-02T02:00:34.779Z,100210
2018-07-02T02:01:39.641Z,100207
2018-07-02T02:02:44.540Z,100207
2018-07-02T02:03:50.249Z,100201
2018-07-02T02:04:56.091Z,100193
2018-07-02T02:06:02.800Z,100201
2018-07-02T02:07:08.242Z,100204
2018-07-02T02:08:13.434Z,100201
2018-07-02T02:09:18.021Z,100196
2018-07-02T02:10:23.449Z,100207
2018-07-02T02:11:29.986Z,100210
2018-07-02T02:12:38.088Z,100216
2018-07-02T02:13:42.956Z,100210
2018-07-02T02:14:48.137Z,100213
2018-07-02T02:15:53.841Z,100216
2018-07-02T02:16:59.452Z,100219
2018-07-02T02:18:05.653Z,100225
2018-07-02T02:19:12.729Z,100230
2018-07-02T02:20:18.219Z,100216
2018-07-02T02:21:23.396Z,100219
2018-07-02T02:22:29.025Z,100230
2018-07-02T02:23:34.746Z,100225
2018-07-02T02:24:41.770Z,100219
2018-07-02T02:25:49.690Z,100225
2018-07-02T02:26:55.164Z,100225
2018-07-02T02:28:00.601Z,100228
2018-07-02T02:29:05.255Z,100228
2018-07-02T02:30:09.940Z,100225
2018-07-02T02:31:17.085Z,100222
2018-07-02T02:32:23.626Z,100233
2018-07-02T02:33:29.163Z,100230
2018-07-02T02:34:34.356Z,100236
2018-07-02T02:35:39.839Z,100236
2018-07-02T02:36:45.531Z,100233
2018-07-02T02:37:51.712Z,100225
2018-07-02T02:38:58.801Z,100233
2018-07-02T02:40:04.682Z,100222
2018-07-02T02:41:09.570Z,100219
2018-07-02T02:42:15.051Z,100225
2018-07-02T02:43:21.762Z,100230
2018-07-02T02:44:27.156Z,100233
2018-07-02T02:45:34.386Z,100236
2018-07-02T02:46:39.265Z,100230
2018-07-02T02:47:44.166Z,100245
2018-07-02T02:48:50.023Z,100230
2018-07-02T02:49:56.049Z,100233
2018-07-02T02:51:03.333Z,100245
2018-07-02T02:52:09.915Z,100230
2018-07-02T02:53:15.421Z,100228
2018-07-02T02:54:19.998Z,100230
2018-07-02T02:55:25.461Z,100219
2018-07-02T02:56:31.130Z,100225
2018-07-02T02:57:37.916Z,100225
2018-07-02T02:58:43.099Z,100230
2018-07-02T02:59:48.556Z,100225
2018-07-02T03:00:53.892Z,100222
2018-07-02T03:01:59.054Z,100222
2018-07-02T03:03:05.429Z,100233
2018-07-02T03:04:12.408Z,100230
2018-07-02T03:05:19.326Z,100236
2018-07-02T03:06:23.649Z,100222
2018-07-02T03:07:30.193Z,100228
2018-07-02T03:08:35.416Z,100239
2018-07-02T03:09:41.193Z,100239
2018-07-02T03:10:48.006Z,100239
2018-07-02T03:11:54.200Z,100242
2018-07-02T03:12:59.162Z,100236
2018-07-02T03:14:04.609Z,100242
2018-07-02T03:15:10.090Z,100254
2018-07-02T03:16:15.781Z,100251
2018-07-02T03:17:22.100Z,100239
2018-07-02T03:18:29.913Z,100236
2018-07-02T03:19:35.087Z,100254
2018-07-02T03:20:40.572Z,100245
2018-07-02T03:21:46.299Z,100233
2018-07-02T03:22:51.757Z,100239
2018-07-02T03:23:56.367Z,100239
2018-07-02T03:25:04.527Z,100242
2018-07-02T03:26:10.277Z,100242
2018-07-02T03:27:15.457Z,100242
2018-07-02T03:28:20.980Z,100228
2018-07-02T03:29:25.893Z,100230
2018-07-02T03:30:31.251Z,100233
2018-07-02T03:31:38.156Z,100233
2018-07-02T03:32:43.618Z,100228
2018-07-02T03:33:49.023Z,100233
2018-07-02T03:34:54.465Z,100242
2018-07-02T03:36:00.968Z,100230
2018-07-02T03:37:07.766Z,100228
2018-07-02T03:38:13.346Z,100239
2018-07-02T03:39:18.796Z,100239
2018-07-02T03:40:24.501Z,100230
2018-07-02T03:41:30.016Z,100251
2018-07-02T03:42:36.861Z,100236
2018-07-02T03:43:44.934Z,100242
2018-07-02T03:44:50.092Z,100236
2018-07-02T03:45:55.943Z,100233
2018-07-02T03:47:01.129Z,100236
2018-07-02T03:48:06.740Z,100239
2018-07-02T03:49:14.553Z,100239
2018-07-02T03:50:21.070Z,100230
2018-07-02T03:51:26.833Z,100239
2018-07-02T03:52:31.997Z,100242
2018-07-02T03:53:37.469Z,100242
2018-07-02T03:54:44.065Z,100239
2018-07-02T03:55:49.833Z,100242
2018-07-02T03:56:54.726Z,100242
2018-07-02T03:58:00.142Z,100233
2018-07-02T03:59:05.624Z,100230
2018-07-02T04:00:11.762Z,100236
2018-07-02T04:01:19.234Z,100233
2018-07-02T04:02:26.748Z,100236
2018-07-02T04:03:32.179Z,100236
2018-07-02T04:04:37.074Z,100233
2018-07-02T04:05:41.979Z,100230
2018-07-02T04:06:47.787Z,100230
2018-07-02T04:07:55.806Z,100242
2018-07-02T04:09:00.684Z,100239
2018-07-02T04:10:05.831Z,100239
2018-07-02T04:11:10.721Z,100233
2018-07-02T04:12:15.747Z,100239
2018-07-02T04:13:22.330Z,100236
2018-07-02T04:14:29.657Z,100236
2018-07-02T04:15:35.762Z,100239
2018-07-02T04:16:42.460Z,100245
2018-07-02T04:17:49.484Z,100256
2018-07-02T04:18:55.999Z,100248
2018-07-02T04:20:02.650Z,100245
2018-07-02T04:21:07.408Z,100251
2018-07-02T04:22:14.951Z,100245
2018-07-02T04:23:20.519Z,100245
2018-07-02T04:24:28.209Z,100245
2018-07-02T04:25:34.830Z,100248
2018-07-02T04:26:41.590Z,100242
2018-07-02T04:27:48.925Z,100251
2018-07-02T04:28:54.110Z,100236
2018-07-02T04:29:59.557Z,100245
2018-07-02T04:31:06.333Z,100251
2018-07-02T04:32:12.552Z,100239
2018-07-02T04:33:18.017Z,100251
2018-07-02T04:34:22.896Z,100245
2018-07-02T04:35:28.089Z,100248
2018-07-02T04:36:34.980Z,100242
2018-07-02T04:37:41.727Z,100239
2018-07-02T04:38:46.973Z,100245
2018-07-02T04:39:52.814Z,100230
2018-07-02T04:40:59.441Z,100239
2018-07-02T04:42:06.424Z,100239
2018-07-02T04:43:12.500Z,100239
2018-07-02T04:44:21.387Z,100242
2018-07-02T04:45:28.322Z,100236
2018-07-02T04:46:35.815Z,100242
2018-07-02T04:47:41.525Z,100245
2018-07-02T04:48:53.139Z,100242
2018-07-02T04:50:01.338Z,100236
2018-07-02T04:51:08.588Z,100248
2018-07-02T04:52:16.270Z,100251
2018-07-02T04:53:23.742Z,100251
2018-07-02T04:54:29.045Z,100239
2018-07-02T04:55:34.677Z,100248
2018-07-02T04:56:41.570Z,100245
2018-07-02T04:57:49.524Z,100251
2018-07-02T04:58:56.036Z,100251
2018-07-02T05:00:03.231Z,100248
2018-07-02T05:01:08.373Z,100239
2018-07-02T05:02:13.878Z,100239
2018-07-02T05:03:19.320Z,100254
2018-07-02T05:04:24.840Z,100254
2018-07-02T05:05:29.701Z,100257
2018-07-02T05:06:36.060Z,100245
2018-07-02T05:07:41.359Z,100260
2018-07-02T05:08:47.292Z,100248
2018-07-02T05:09:52.411Z,100257
2018-07-02T05:10:57.686Z,100245
2018-07-02T05:12:02.574Z,100251
2018-07-02T05:13:08.140Z,100236
2018-07-02T05:14:12.750Z,100251
2018-07-02T05:15:18.314Z,100260
2018-07-02T05:16:23.720Z,100245
2018-07-02T05:17:29.402Z,100257
2018-07-02T05:18:34.534Z,100248
2018-07-02T05:19:39.976Z,100260
2018-07-02T05:20:45.125Z,100254
2018-07-02T05:21:50.502Z,100254
2018-07-02T05:22:55.949Z,100257
2018-07-02T05:24:01.433Z,100251
2018-07-02T05:25:06.379Z,100245
2018-07-02T05:26:11.537Z,100248
2018-07-02T05:27:16.727Z,100248
2018-07-02T05:28:22.440Z,100248
2018-07-02T05:29:27.325Z,100242
2018-07-02T05:30:32.734Z,100245
2018-07-02T05:31:38.182Z,100245
2018-07-02T05:32:43.364Z,100248
2018-07-02T05:33:48.821Z,100248
2018-07-02T05:34:54.270Z,100245
2018-07-02T05:35:59.718Z,100251
2018-07-02T05:37:04.710Z,100239
2018-07-02T05:38:09.880Z,100254
2018-07-02T05:39:14.488Z,100251
2018-07-02T05:40:19.627Z,100245
2018-07-02T05:41:25.060Z,100248
2018-07-02T05:42:30.855Z,100242
2018-07-02T05:43:36.309Z,100248
2018-07-02T05:44:41.482Z,100251
2018-07-02T05:45:47.042Z,100242
2018-07-02T05:46:52.484Z,100254
2018-07-02T05:47:57.929Z,100245
2018-07-02T05:49:03.035Z,100245
2018-07-02T05:50:07.925Z,100248
2018-07-02T05:51:13.087Z,100248
2018-07-02T05:52:18.938Z,100257
2018-07-02T05:53:24.096Z,100248
2018-07-02T05:54:29.857Z,100251
2018-07-02T05:55:34.733Z,100251
2018-07-02T05:56:39.902Z,100257
2018-07-02T05:57:45.358Z,100260
2018-07-02T05:58:50.812Z,100251
2018-07-02T05:59:56.251Z,100248
2018-07-02T06:01:01.407Z,100260
2018-07-02T06:02:06.277Z,100260
2018-07-02T06:03:11.721Z,100257
2018-07-02T06:04:17.168Z,100254
2018-07-02T06:05:22.043Z,100239
2018-07-02T06:06:27.476Z,100248
2018-07-02T06:07:32.221Z,100245
2018-07-02T06:08:37.086Z,100245
2018-07-02T06:09:42.562Z,100248
2018-07-02T06:10:48.015Z,100263
2018-07-02T06:11:53.246Z,100248
2018-07-02T06:12:58.705Z,100245
2018-07-02T06:14:03.019Z,100254
2018-07-02T06:15:07.898Z,100248
2018-07-02T06:16:13.609Z,100245
2018-07-02T06:17:18.788Z,100245
2018-07-02T06:18:24.225Z,100237
2018-07-02T06:19:43.823Z,100239
2018-07-02T06:20:48.971Z,100237
2018-07-02T06:21:54.105Z,100239
2018-07-02T06:22:59.288Z,100234
2018-07-02T06:24:04.185Z,100234
2018-07-02T06:25:09.604Z,100242
2018-07-02T06:26:14.473Z,100231
2018-07-02T06:27:19.917Z,100242
2018-07-02T06:28:25.330Z,100245
2018-07-02T06:29:30.496Z,100245
2018-07-02T06:30:36.169Z,100242
2018-07-02T06:31:41.397Z,100242
2018-07-02T06:32:46.566Z,100234
2018-07-02T06:33:52.261Z,100245
2018-07-02T06:34:56.861Z,100234
2018-07-02T06:36:01.731Z,100231
2018-07-02T06:37:06.896Z,100242
2018-07-02T06:38:11.790Z,100242
2018-07-02T06:39:17.248Z,100231
2018-07-02T06:40:22.789Z,100240
2018-07-02T06:41:27.678Z,100234
2018-07-02T06:42:32.993Z,100237
2018-07-02T06:43:37.600Z,100237
2018-07-02T06:44:42.471Z,100231
2018-07-02T06:45:48.231Z,100225
2018-07-02T06:46:53.688Z,100234
2018-07-02T06:47:58.308Z,100228
2018-07-02T06:49:03.186Z,100242
2018-07-02T06:50:08.624Z,100242
2018-07-02T06:51:13.511Z,100234
2018-07-02T06:52:19.011Z,100237
2018-07-02T06:53:24.800Z,100237
2018-07-02T06:54:30.646Z,100242
2018-07-02T06:55:35.524Z,100240
2018-07-02T06:56:40.426Z,100251
2018-07-02T06:57:46.229Z,100242
2018-07-02T06:58:51.396Z,100237
2018-07-02T06:59:56.567Z,100240
2018-07-02T07:01:02.252Z,100237
2018-07-02T07:02:06.595Z,100234
2018-07-02T07:03:11.487Z,100243
2018-07-02T07:04:16.916Z,100245
2018-07-02T07:05:22.373Z,100237
2018-07-02T07:06:27.933Z,100251
2018-07-02T07:07:33.707Z,100248
2018-07-02T07:08:38.819Z,100248
2018-07-02T07:09:44.361Z,100234
2018-07-02T07:10:49.510Z,100254
2018-07-02T07:11:54.100Z,100243
2018-07-02T07:12:59.861Z,100237
2018-07-02T07:14:04.740Z,100240
2018-07-02T07:15:09.068Z,100245
2018-07-02T07:16:14.339Z,100234
2018-07-02T07:17:19.500Z,100251
2018-07-02T07:18:24.952Z,100243
2018-07-02T07:19:30.660Z,100240
2018-07-02T07:20:35.827Z,100248
2018-07-02T07:21:40.695Z,100251
2018-07-02T07:22:46.069Z,100240
2018-07-02T07:23:51.533Z,100237
2018-07-02T07:24:56.931Z,100245
2018-07-02T07:26:02.646Z,100240
2018-07-02T07:27:08.031Z,100245
2018-07-02T07:28:13.588Z,100243
2018-07-02T07:29:18.784Z,100248
2018-07-02T07:30:23.655Z,100254
2018-07-02T07:31:43.714Z,100240
2018-07-02T07:32:49.148Z,100248
2018-07-02T07:33:54.842Z,100243
2018-07-02T07:35:00.006Z,100248
2018-07-02T07:36:05.166Z,100251
2018-07-02T07:37:10.774Z,100251
2018-07-02T07:38:15.925Z,100246
2018-07-02T07:39:21.369Z,100254
2018-07-02T07:40:27.214Z,100251
2018-07-02T07:41:32.671Z,100257
2018-07-02T07:42:38.188Z,100246
2018-07-02T07:43:43.383Z,100251
2018-07-02T07:44:48.449Z,100240
2018-07-02T07:45:54.472Z,100246
2018-07-02T07:46:59.651Z,100248
2018-07-02T07:48:05.095Z,100248
2018-07-02T07:49:10.454Z,100254
2018-07-02T07:50:15.066Z,100251
2018-07-02T07:51:19.668Z,100254
2018-07-02T07:52:25.380Z,100257
2018-07-02T07:53:30.296Z,100240
2018-07-02T07:54:35.982Z,100251
2018-07-02T07:55:41.165Z,100251
2018-07-02T07:56:46.613Z,100246
2018-07-02T07:57:52.371Z,100257
2018-07-02T07:58:57.529Z,100248
2018-07-02T08:00:02.434Z,100248
2018-07-02T08:01:07.839Z,100248
2018-07-02T08:02:13.009Z,100248
2018-07-02T08:03:18.178Z,100248
2018-07-02T08:04:23.979Z,100254
2018-07-02T08:05:28.592Z,100251
2018-07-02T08:06:34.412Z,100251
2018-07-02T08:07:39.857Z,100248
2018-07-02T08:08:44.729Z,100246
2018-07-02T08:09:50.030Z,100263
2018-07-02T08:10:55.191Z,100257
2018-07-02T08:12:00.354Z,100269
2018-07-02T08:13:05.200Z,100272
2018-07-02T08:14:10.399Z,100263
2018-07-02T08:15:15.990Z,100260
2018-07-02T08:16:20.852Z,100278
2018-07-02T08:17:25.478Z,100266
2018-07-02T08:18:30.983Z,100272
2018-07-02T08:19:36.424Z,100260
2018-07-02T08:20:41.589Z,100269
2018-07-02T08:21:47.435Z,100254
2018-07-02T08:22:51.753Z,100260
2018-07-02T08:23:56.923Z,100260
2018-07-02T08:25:02.435Z,100257
2018-07-02T08:26:07.623Z,100246
2018-07-02T08:27:12.547Z,100246
2018-07-02T08:28:17.799Z,100254
2018-07-02T08:29:23.447Z,100260
2018-07-02T08:30:28.980Z,100246
2018-07-02T08:31:34.159Z,100240
2018-07-02T08:32:39.035Z,100243
2018-07-02T08:33:44.829Z,100248
2018-07-02T08:34:50.001Z,100251
2018-07-02T08:35:55.800Z,100260
2018-07-02T08:37:01.515Z,100257
2018-07-02T08:38:05.818Z,100260
2018-07-02T08:39:09.839Z,100263
2018-07-02T08:40:15.649Z,100257
2018-07-02T08:41:20.254Z,100249
2018-07-02T08:42:40.682Z,100248
2018-07-02T08:43:46.119Z,100251
2018-07-02T08:44:50.999Z,100260
2018-07-02T08:45:56.711Z,100257
2018-07-02T08:47:01.886Z,100254
2018-07-02T08:48:07.059Z,100251
2018-07-02T08:49:12.961Z,100257
2018-07-02T08:50:17.559Z,100251
2018-07-02T08:51:23.312Z,100254
2018-07-02T08:52:29.179Z,100254
2018-07-02T08:53:34.624Z,100254
2018-07-02T08:54:40.298Z,100251
2018-07-02T08:55:45.500Z,100254
2018-07-02T08:56:50.957Z,100249
2018-07-02T08:57:56.700Z,100251
2018-07-02T08:59:02.088Z,100249
2018-07-02T09:00:07.531Z,100251
2018-07-02T09:01:12.806Z,100249
2018-07-02T09:02:17.976Z,100254
2018-07-02T09:03:22.581Z,100246
2018-07-02T09:04:28.632Z,100231
2018-07-02T09:05:33.975Z,100240
2018-07-02T09:06:39.109Z,100234
2018-07-02T09:07:44.592Z,100251
2018-07-02T09:08:49.754Z,100249
2018-07-02T09:09:55.161Z,100243
2018-07-02T09:11:00.646Z,100260
2018-07-02T09:12:05.937Z,100246
2018-07-02T09:13:11.469Z,100254
2018-07-02T09:14:16.349Z,100240
2018-07-02T09:15:21.504Z,100249
2018-07-02T09:16:27.523Z,100243
2018-07-02T09:17:32.314Z,100231
2018-07-02T09:18:38.004Z,100243
2018-07-02T09:19:43.093Z,100237
2018-07-02T09:20:48.803Z,100246
2018-07-02T09:21:54.622Z,100231
2018-07-02T09:23:00.018Z,100249
2018-07-02T09:24:05.451Z,100249
2018-07-02T09:25:10.977Z,100243
2018-07-02T09:26:16.292Z,100240
2018-07-02T09:27:21.792Z,100234
2018-07-02T09:28:27.363Z,100237
2018-07-02T09:29:32.838Z,100228
2018-07-02T09:30:38.300Z,100234
2018-07-02T09:31:43.918Z,100228
2018-07-02T09:32:49.366Z,100240
2018-07-02T09:33:54.757Z,100234
2018-07-02T09:35:00.419Z,100228
2018-07-02T09:36:05.736Z,100234
2018-07-02T09:37:11.479Z,100231
2018-07-02T09:38:16.616Z,100231
2018-07-02T09:39:21.868Z,100228
2018-07-02T09:40:27.438Z,100234
2018-07-02T09:41:32.932Z,100228
2018-07-02T09:42:38.825Z,100240
2018-07-02T09:43:43.716Z,100243
2018-07-02T09:44:48.870Z,100240
2018-07-02T09:45:54.328Z,100243
2018-07-02T09:46:59.709Z,100243
2018-07-02T09:48:04.879Z,100234
2018-07-02T09:49:10.930Z,100234
2018-07-02T09:50:16.374Z,100228
2018-07-02T09:51:21.899Z,100228
2018-07-02T09:52:27.175Z,100231
2018-07-02T09:53:32.707Z,100225
2018-07-02T09:54:37.836Z,100234
2018-07-02T09:55:43.003Z,100240
2018-07-02T09:56:48.167Z,100228
2018-07-02T09:57:53.594Z,100231
2018-07-02T09:58:59.031Z,100228
2018-07-02T10:00:03.913Z,100225
2018-07-02T10:01:08.588Z,100214
2018-07-02T10:02:13.469Z,100225
2018-07-02T10:03:19.224Z,100211
2018-07-02T10:04:24.640Z,100208
2018-07-02T10:05:29.662Z,100214
2018-07-02T10:06:35.729Z,100214
2018-07-02T10:07:40.993Z,100222
2018-07-02T10:08:46.379Z,100208
2018-07-02T10:09:52.068Z,100219
2018-07-02T10:10:57.131Z,100211
2018-07-02T10:12:02.029Z,100211
2018-07-02T10:13:07.455Z,100199
2018-07-02T10:14:12.630Z,100202
2018-07-02T10:15:17.797Z,100205
2018-07-02T10:16:23.312Z,100211
2018-07-02T10:17:28.468Z,100211
2018-07-02T10:18:33.992Z,100211
2018-07-02T10:19:38.877Z,100196
2018-07-02T10:20:43.764Z,100199
2018-07-02T10:21:49.632Z,100199
2018-07-02T10:22:54.803Z,100202
2018-07-02T10:24:00.531Z,100208
2018-07-02T10:25:05.700Z,100202
2018-07-02T10:26:10.867Z,100196
2018-07-02T10:27:16.366Z,100196
2018-07-02T10:28:21.781Z,100208
2018-07-02T10:29:27.224Z,100202
2018-07-02T10:30:33.223Z,100208
2018-07-02T10:31:38.701Z,100205
2018-07-02T10:32:44.275Z,100202
2018-07-02T10:33:49.999Z,100190
2018-07-02T10:34:56.209Z,100193
2018-07-02T10:36:01.770Z,100214
2018-07-02T10:37:06.350Z,100205
2018-07-02T10:38:11.810Z,100208
2018-07-02T10:39:17.269Z,100208
2018-07-02T10:40:22.994Z,100214
2018-07-02T10:41:27.871Z,100185
2018-07-02T10:42:33.113Z,100202
2018-07-02T10:43:38.288Z,100205
2018-07-02T10:44:43.170Z,100217
2018-07-02T10:45:48.576Z,100202
2018-07-02T10:46:53.669Z,100199
2018-07-02T10:47:59.119Z,100196
2018-07-02T10:49:04.680Z,100193
2018-07-02T10:50:10.124Z,100208
2018-07-02T10:51:15.036Z,100205
2018-07-02T10:52:20.449Z,100205
2018-07-02T10:53:26.028Z,100199
2018-07-02T10:54:31.258Z,100202
2018-07-02T10:55:36.297Z,100193
2018-07-02T10:56:41.569Z,100199
2018-07-02T10:57:47.200Z,100196
2018-07-02T10:58:52.358Z,100188
2018-07-02T10:59:57.520Z,100188
2018-07-02T11:01:02.861Z,100193
2018-07-02T11:02:08.030Z,100196
2018-07-02T11:03:13.479Z,100196
2018-07-02T11:04:18.612Z,100193
2018-07-02T11:05:24.053Z,100190
2018-07-02T11:06:29.481Z,100187
2018-07-02T11:07:34.653Z,100188
2018-07-02T11:08:39.523Z,100190
2018-07-02T11:09:44.538Z,100199
2018-07-02T11:10:49.701Z,100185
2018-07-02T11:11:54.873Z,100193
2018-07-02T11:13:00.394Z,100196
2018-07-02T11:14:05.562Z,100196
2018-07-02T11:15:11.008Z,100185
2018-07-02T11:16:16.541Z,100173
2018-07-02T11:17:21.701Z,100179
2018-07-02T11:18:27.095Z,100188
2018-07-02T11:19:32.538Z,100179
2018-07-02T11:20:37.135Z,100185
2018-07-02T11:21:42.835Z,100176
2018-07-02T11:22:47.711Z,100193
2018-07-02T11:23:53.162Z,100185
2018-07-02T11:24:58.951Z,100185
2018-07-02T11:26:03.552Z,100179
2018-07-02T11:27:08.878Z,100176
2018-07-02T11:28:14.310Z,100173
2018-07-02T11:29:19.474Z,100173
2018-07-02T11:30:25.121Z,100164
2018-07-02T11:31:30.710Z,100173
2018-07-02T11:32:36.334Z,100170
2018-07-02T11:33:42.041Z,100173
2018-07-02T11:34:46.924Z,100170
2018-07-02T11:35:52.371Z,100170
2018-07-02T11:36:57.698Z,100176
2018-07-02T11:38:02.775Z,100173
2018-07-02T11:39:08.232Z,100173
2018-07-02T11:40:14.129Z,100156
2018-07-02T11:41:19.582Z,100158
2018-07-02T11:42:40.036Z,100173
2018-07-02T11:43:45.481Z,100170
2018-07-02T11:44:50.388Z,100173
2018-07-02T11:45:55.786Z,100173
2018-07-02T11:47:01.233Z,100170
2018-07-02T11:48:05.267Z,100173
2018-07-02T11:49:10.469Z,100170
2018-07-02T11:50:15.530Z,100170
2018-07-02T11:51:20.690Z,100156
2018-07-02T11:52:41.188Z,100147
2018-07-02T11:53:46.337Z,100145
2018-07-02T11:54:51.486Z,100153
2018-07-02T11:55:56.657Z,100150
2018-07-02T11:57:01.834Z,100158
2018-07-02T11:58:06.540Z,100147
2018-07-02T11:59:12.005Z,100153
2018-07-02T12:00:17.154Z,100150
2018-07-02T12:01:22.954Z,100145
2018-07-02T12:02:28.133Z,100156
2018-07-02T12:03:33.734Z,100161
2018-07-02T12:04:39.191Z,100161
2018-07-02T12:05:44.642Z,100153
2018-07-02T12:06:49.872Z,100164
2018-07-02T12:07:55.360Z,100158
2018-07-02T12:09:00.814Z,100158
2018-07-02T12:10:06.032Z,100158
2018-07-02T12:11:11.195Z,100147
2018-07-02T12:12:16.108Z,100147
2018-07-02T12:13:21.533Z,100156
2018-07-02T12:14:26.709Z,100150
2018-07-02T12:15:32.233Z,100153
2018-07-02T12:16:37.314Z,100158
2018-07-02T12:17:42.482Z,100147
2018-07-02T12:18:47.929Z,100161
2018-07-02T12:19:53.394Z,100161
2018-07-02T12:20:58.539Z,100170
2018-07-02T12:22:03.700Z,100167
2018-07-02T12:23:08.874Z,100167
2018-07-02T12:24:14.530Z,100164
2018-07-02T12:25:20.260Z,100170
2018-07-02T12:26:25.696Z,100153
2018-07-02T12:27:31.125Z,100170
2018-07-02T12:28:35.994Z,100156
2018-07-02T12:29:41.459Z,100158
2018-07-02T12:30:46.872Z,100176
2018-07-02T12:31:51.472Z,100167
2018-07-02T12:32:56.638Z,100176
2018-07-02T12:34:02.030Z,100179
2018-07-02T12:35:07.401Z,100182
2018-07-02T12:36:12.842Z,100179
2018-07-02T12:37:18.257Z,100173
2018-07-02T12:38:23.698Z,100173
2018-07-02T12:39:29.550Z,100170
2018-07-02T12:40:34.452Z,100158
2018-07-02T12:41:39.950Z,100161
2018-07-02T12:42:45.667Z,100164
2018-07-02T12:43:50.841Z,100161
2018-07-02T12:44:55.995Z,100170
2018-07-02T12:46:01.191Z,100179
2018-07-02T12:47:05.783Z,100173
2018-07-02T12:48:11.238Z,100164
2018-07-02T12:49:16.659Z,100158
2018-07-02T12:50:22.106Z,100161
2018-07-02T12:51:27.558Z,100161
2018-07-02T12:52:32.727Z,100156
2018-07-02T12:53:37.612Z,100167
2018-07-02T12:54:43.302Z,100158
2018-07-02T12:55:48.486Z,100164
2018-07-02T12:56:53.927Z,100164
2018-07-02T12:57:59.047Z,100161
2018-07-02T12:59:03.647Z,100170
2018-07-02T13:00:09.113Z,100158
2018-07-02T13:01:14.003Z,100161
2018-07-02T13:02:19.322Z,100173
2018-07-02T13:03:24.185Z,100161
2018-07-02T13:04:44.281Z,100150
2018-07-02T13:05:49.467Z,100158
2018-07-02T13:06:54.881Z,100156
2018-07-02T13:08:00.689Z,100161
2018-07-02T13:09:05.492Z,100158
2018-07-02T13:10:11.188Z,100153
2018-07-02T13:11:16.626Z,100170
2018-07-02T13:12:22.070Z,100161
2018-07-02T13:13:28.243Z,100161
2018-07-02T13:14:33.776Z,100156
2018-07-02T13:15:39.024Z,100150
2018-07-02T13:16:43.625Z,100153
2018-07-02T13:17:48.999Z,100139
2018-07-02T13:18:54.448Z,100158
2018-07-02T13:19:59.525Z,100161
2018-07-02T13:21:04.690Z,100150
2018-07-02T13:22:09.310Z,100150
2018-07-02T13:23:14.479Z,100147
2018-07-02T13:24:19.364Z,100145
2018-07-02T13:25:24.788Z,100139
2018-07-02T13:26:30.054Z,100145
2018-07-02T13:27:35.724Z,100145
2018-07-02T13:28:41.111Z,100150
2018-07-02T13:29:45.986Z,100142
2018-07-02T13:30:51.842Z,100133
2018-07-02T13:31:56.711Z,100150
2018-07-02T13:33:01.882Z,100145
2018-07-02T13:34:06.500Z,100142
2018-07-02T13:35:11.679Z,100136
2018-07-02T13:36:16.627Z,100145
2018-07-02T13:37:22.424Z,100142
2018-07-02T13:38:27.614Z,100145
2018-07-02T13:39:32.188Z,100139